sensor_id;sensor_type;location;lat;lon;timestamp;P1;durP1;ratioP1;P2;durP2;ratioP2
12332;SDS011;6232;48.094;11.288;2023-06-10T00:01:09;12.90;;;11.57;;
12332;SDS011;6232;48.094;11.288;2023-06-10T00:03:55;14.60;;;12.20;;
12332;SDS011;6232;48.094;11.288;2023-06-10T00:06:40;16.37;;;13.43;;
12332;SDS011;6232;48.094;11.288;2023-06-10T00:09:26;12.57;;;11.27;;
12332;SDS011;6232;48.094;11.288;2023-06-10T00:12:12;19.50;;;11.93;;
12332;SDS011;6232;48.094;11.288;2023-06-10T00:14:57;12.50;;;11.20;;
12332;SDS011;6232;48.094;11.288;2023-06-10T00:17:43;12.93;;;11.63;;
12332;SDS011;6232;48.094;11.288;2023-06-10T00:20:29;13.37;;;11.97;;
12332;SDS011;6232;48.094;11.288;2023-06-10T00:23:15;13.40;;;12.00;;
12332;SDS011;6232;48.094;11.288;2023-06-10T00:26:01;14.13;;;12.57;;
12332;SDS011;6232;48.094;11.288;2023-06-10T00:28:47;13.00;;;11.60;;
12332;SDS011;6232;48.094;11.288;2023-06-10T00:31:39;13.93;;;12.53;;
12332;SDS011;6232;48.094;11.288;2023-06-10T00:34:25;14.20;;;12.70;;
12332;SDS011;6232;48.094;11.288;2023-06-10T00:37:10;14.10;;;12.63;;
12332;SDS011;6232;48.094;11.288;2023-06-10T00:39:56;14.67;;;13.10;;
12332;SDS011;6232;48.094;11.288;2023-06-10T00:42:42;15.90;;;13.60;;
12332;SDS011;6232;48.094;11.288;2023-06-10T00:45:27;18.00;;;13.40;;
12332;SDS011;6232;48.094;11.288;2023-06-10T00:48:13;20.50;;;13.83;;
12332;SDS011;6232;48.094;11.288;2023-06-10T00:50:58;15.57;;;12.53;;
12332;SDS011;6232;48.094;11.288;2023-06-10T00:53:45;18.30;;;14.47;;
12332;SDS011;6232;48.094;11.288;2023-06-10T00:56:31;20.73;;;14.77;;
12332;SDS011;6232;48.094;11.288;2023-06-10T00:59:17;16.83;;;14.40;;
12332;SDS011;6232;48.094;11.288;2023-06-10T01:02:03;17.07;;;14.47;;
12332;SDS011;6232;48.094;11.288;2023-06-10T01:04:49;19.77;;;15.30;;
12332;SDS011;6232;48.094;11.288;2023-06-10T01:07:40;20.93;;;15.90;;
12332;SDS011;6232;48.094;11.288;2023-06-10T01:13:13;21.23;;;14.70;;
12332;SDS011;6232;48.094;11.288;2023-06-10T01:16:00;19.53;;;15.53;;
12332;SDS011;6232;48.094;11.288;2023-06-10T01:18:46;17.47;;;14.03;;
12332;SDS011;6232;48.094;11.288;2023-06-10T01:21:32;17.73;;;14.93;;
12332;SDS011;6232;48.094;11.288;2023-06-10T01:24:17;16.93;;;13.90;;
12332;SDS011;6232;48.094;11.288;2023-06-10T01:27:05;14.80;;;12.87;;
12332;SDS011;6232;48.094;11.288;2023-06-10T01:29:54;14.40;;;12.90;;
12332;SDS011;6232;48.094;11.288;2023-06-10T01:32:45;13.90;;;12.47;;
12332;SDS011;6232;48.094;11.288;2023-06-10T01:35:31;12.60;;;11.30;;
12332;SDS011;6232;48.094;11.288;2023-06-10T01:38:16;14.17;;;11.73;;
12332;SDS011;6232;48.094;11.288;2023-06-10T01:41:04;14.30;;;12.20;;
12332;SDS011;6232;48.094;11.288;2023-06-10T01:43:50;13.60;;;12.20;;
12332;SDS011;6232;48.094;11.288;2023-06-10T01:46:35;12.50;;;11.30;;
12332;SDS011;6232;48.094;11.288;2023-06-10T01:49:21;12.77;;;11.40;;
12332;SDS011;6232;48.094;11.288;2023-06-10T01:52:09;13.40;;;11.70;;
12332;SDS011;6232;48.094;11.288;2023-06-10T01:54:55;11.53;;;10.43;;
12332;SDS011;6232;48.094;11.288;2023-06-10T01:57:40;14.00;;;11.70;;
12332;SDS011;6232;48.094;11.288;2023-06-10T02:00:26;12.20;;;10.90;;
12332;SDS011;6232;48.094;11.288;2023-06-10T02:03:11;18.60;;;12.23;;
12332;SDS011;6232;48.094;11.288;2023-06-10T02:05:57;15.33;;;11.70;;
12332;SDS011;6232;48.094;11.288;2023-06-10T02:08:43;13.60;;;11.83;;
12332;SDS011;6232;48.094;11.288;2023-06-10T02:11:28;17.30;;;13.87;;
12332;SDS011;6232;48.094;11.288;2023-06-10T02:14:14;15.10;;;13.30;;
12332;SDS011;6232;48.094;11.288;2023-06-10T02:16:59;16.23;;;13.20;;
12332;SDS011;6232;48.094;11.288;2023-06-10T02:19:45;16.60;;;13.67;;
12332;SDS011;6232;48.094;11.288;2023-06-10T02:22:38;16.30;;;13.83;;
12332;SDS011;6232;48.094;11.288;2023-06-10T02:25:23;14.60;;;13.00;;
12332;SDS011;6232;48.094;11.288;2023-06-10T02:28:09;15.20;;;13.43;;
12332;SDS011;6232;48.094;11.288;2023-06-10T02:30:54;13.67;;;12.27;;
12332;SDS011;6232;48.094;11.288;2023-06-10T02:33:42;14.37;;;12.23;;
12332;SDS011;6232;48.094;11.288;2023-06-10T02:36:28;15.43;;;13.10;;
12332;SDS011;6232;48.094;11.288;2023-06-10T02:39:13;13.93;;;12.43;;
12332;SDS011;6232;48.094;11.288;2023-06-10T02:41:59;15.53;;;12.93;;
12332;SDS011;6232;48.094;11.288;2023-06-10T02:44:44;16.30;;;13.60;;
12332;SDS011;6232;48.094;11.288;2023-06-10T02:47:30;14.77;;;12.80;;
12332;SDS011;6232;48.094;11.288;2023-06-10T02:50:15;15.70;;;12.67;;
12332;SDS011;6232;48.094;11.288;2023-06-10T02:53:01;13.90;;;12.33;;
12332;SDS011;6232;48.094;11.288;2023-06-10T02:55:46;14.73;;;12.43;;
12332;SDS011;6232;48.094;11.288;2023-06-10T02:58:32;14.37;;;12.97;;
12332;SDS011;6232;48.094;11.288;2023-06-10T03:01:18;14.57;;;12.37;;
12332;SDS011;6232;48.094;11.288;2023-06-10T03:04:04;13.90;;;11.30;;
12332;SDS011;6232;48.094;11.288;2023-06-10T03:06:50;14.67;;;12.13;;
12332;SDS011;6232;48.094;11.288;2023-06-10T03:09:35;15.40;;;12.93;;
12332;SDS011;6232;48.094;11.288;2023-06-10T03:12:21;15.43;;;12.47;;
12332;SDS011;6232;48.094;11.288;2023-06-10T03:15:06;16.17;;;13.50;;
12332;SDS011;6232;48.094;11.288;2023-06-10T03:17:52;14.60;;;13.03;;
12332;SDS011;6232;48.094;11.288;2023-06-10T03:20:38;18.30;;;11.80;;
12332;SDS011;6232;48.094;11.288;2023-06-10T03:23:25;16.70;;;11.70;;
12332;SDS011;6232;48.094;11.288;2023-06-10T03:26:10;13.03;;;11.50;;
12332;SDS011;6232;48.094;11.288;2023-06-10T03:28:57;13.30;;;11.70;;
12332;SDS011;6232;48.094;11.288;2023-06-10T03:31:43;13.67;;;11.73;;
12332;SDS011;6232;48.094;11.288;2023-06-10T03:34:28;14.07;;;11.90;;
12332;SDS011;6232;48.094;11.288;2023-06-10T03:37:15;16.03;;;12.63;;
12332;SDS011;6232;48.094;11.288;2023-06-10T03:40:01;15.67;;;12.70;;
12332;SDS011;6232;48.094;11.288;2023-06-10T03:42:46;13.80;;;12.27;;
12332;SDS011;6232;48.094;11.288;2023-06-10T03:45:32;12.93;;;11.60;;
12332;SDS011;6232;48.094;11.288;2023-06-10T03:48:17;13.90;;;12.17;;
12332;SDS011;6232;48.094;11.288;2023-06-10T03:51:03;13.50;;;12.10;;
12332;SDS011;6232;48.094;11.288;2023-06-10T03:53:48;16.73;;;13.10;;
12332;SDS011;6232;48.094;11.288;2023-06-10T03:56:34;16.00;;;13.00;;
12332;SDS011;6232;48.094;11.288;2023-06-10T03:59:20;22.60;;;12.17;;
12332;SDS011;6232;48.094;11.288;2023-06-10T04:02:06;14.70;;;13.00;;
12332;SDS011;6232;48.094;11.288;2023-06-10T04:04:53;14.87;;;13.43;;
12332;SDS011;6232;48.094;11.288;2023-06-10T04:07:38;15.47;;;12.90;;
12332;SDS011;6232;48.094;11.288;2023-06-10T04:10:26;19.43;;;13.83;;
12332;SDS011;6232;48.094;11.288;2023-06-10T04:13:11;16.33;;;13.47;;
12332;SDS011;6232;48.094;11.288;2023-06-10T04:15:57;15.80;;;13.93;;
12332;SDS011;6232;48.094;11.288;2023-06-10T04:18:42;18.17;;;14.03;;
12332;SDS011;6232;48.094;11.288;2023-06-10T04:21:28;19.27;;;13.60;;
12332;SDS011;6232;48.094;11.288;2023-06-10T04:24:13;14.77;;;13.27;;
12332;SDS011;6232;48.094;11.288;2023-06-10T04:26:59;16.70;;;13.43;;
12332;SDS011;6232;48.094;11.288;2023-06-10T04:29:45;13.83;;;12.37;;
12332;SDS011;6232;48.094;11.288;2023-06-10T04:32:31;15.93;;;12.90;;
12332;SDS011;6232;48.094;11.288;2023-06-10T04:35:16;14.23;;;12.40;;
12332;SDS011;6232;48.094;11.288;2023-06-10T04:38:02;16.13;;;11.23;;
12332;SDS011;6232;48.094;11.288;2023-06-10T04:40:48;13.33;;;11.90;;
12332;SDS011;6232;48.094;11.288;2023-06-10T04:43:34;16.43;;;11.63;;
12332;SDS011;6232;48.094;11.288;2023-06-10T04:46:19;15.03;;;13.33;;
12332;SDS011;6232;48.094;11.288;2023-06-10T04:49:05;21.20;;;13.63;;
12332;SDS011;6232;48.094;11.288;2023-06-10T04:51:50;17.37;;;14.03;;
12332;SDS011;6232;48.094;11.288;2023-06-10T04:54:36;15.20;;;13.50;;
12332;SDS011;6232;48.094;11.288;2023-06-10T04:57:22;18.13;;;13.90;;
12332;SDS011;6232;48.094;11.288;2023-06-10T05:00:07;15.23;;;13.60;;
12332;SDS011;6232;48.094;11.288;2023-06-10T05:02:53;16.20;;;12.80;;
12332;SDS011;6232;48.094;11.288;2023-06-10T05:05:39;15.27;;;12.10;;
12332;SDS011;6232;48.094;11.288;2023-06-10T05:08:25;18.33;;;14.40;;
12332;SDS011;6232;48.094;11.288;2023-06-10T05:11:10;21.07;;;13.13;;
12332;SDS011;6232;48.094;11.288;2023-06-10T05:13:56;21.90;;;12.67;;
12332;SDS011;6232;48.094;11.288;2023-06-10T05:16:41;15.37;;;13.23;;
12332;SDS011;6232;48.094;11.288;2023-06-10T05:19:28;14.10;;;12.03;;
12332;SDS011;6232;48.094;11.288;2023-06-10T05:22:14;15.43;;;10.70;;
12332;SDS011;6232;48.094;11.288;2023-06-10T05:25:01;14.43;;;11.60;;
12332;SDS011;6232;48.094;11.288;2023-06-10T05:27:47;13.03;;;11.63;;
12332;SDS011;6232;48.094;11.288;2023-06-10T05:30:32;13.60;;;11.23;;
12332;SDS011;6232;48.094;11.288;2023-06-10T05:33:18;13.50;;;12.10;;
12332;SDS011;6232;48.094;11.288;2023-06-10T05:36:03;12.17;;;10.87;;
12332;SDS011;6232;48.094;11.288;2023-06-10T05:38:49;15.93;;;12.27;;
12332;SDS011;6232;48.094;11.288;2023-06-10T05:41:35;15.40;;;12.03;;
12332;SDS011;6232;48.094;11.288;2023-06-10T05:44:20;14.17;;;12.47;;
12332;SDS011;6232;48.094;11.288;2023-06-10T05:47:06;12.73;;;11.17;;
12332;SDS011;6232;48.094;11.288;2023-06-10T05:49:51;13.97;;;12.07;;
12332;SDS011;6232;48.094;11.288;2023-06-10T05:52:37;12.63;;;11.27;;
12332;SDS011;6232;48.094;11.288;2023-06-10T05:55:25;12.40;;;10.80;;
12332;SDS011;6232;48.094;11.288;2023-06-10T05:58:11;12.87;;;10.90;;
12332;SDS011;6232;48.094;11.288;2023-06-10T06:00:57;16.37;;;11.40;;
12332;SDS011;6232;48.094;11.288;2023-06-10T06:03:43;12.13;;;10.80;;
12332;SDS011;6232;48.094;11.288;2023-06-10T06:06:28;11.83;;;10.50;;
12332;SDS011;6232;48.094;11.288;2023-06-10T06:09:14;13.80;;;10.63;;
12332;SDS011;6232;48.094;11.288;2023-06-10T06:11:59;12.10;;;9.37;;
12332;SDS011;6232;48.094;11.288;2023-06-10T06:14:45;15.67;;;10.40;;
12332;SDS011;6232;48.094;11.288;2023-06-10T06:17:30;11.37;;;10.17;;
12332;SDS011;6232;48.094;11.288;2023-06-10T06:20:16;11.90;;;10.33;;
12332;SDS011;6232;48.094;11.288;2023-06-10T06:23:01;12.33;;;10.87;;
12332;SDS011;6232;48.094;11.288;2023-06-10T06:25:47;14.17;;;11.00;;
12332;SDS011;6232;48.094;11.288;2023-06-10T06:28:33;12.37;;;10.70;;
12332;SDS011;6232;48.094;11.288;2023-06-10T06:31:18;11.73;;;10.50;;
12332;SDS011;6232;48.094;11.288;2023-06-10T06:34:04;13.40;;;10.77;;
12332;SDS011;6232;48.094;11.288;2023-06-10T06:36:49;12.60;;;10.97;;
12332;SDS011;6232;48.094;11.288;2023-06-10T06:39:35;14.77;;;12.10;;
12332;SDS011;6232;48.094;11.288;2023-06-10T06:42:20;12.80;;;9.87;;
12332;SDS011;6232;48.094;11.288;2023-06-10T06:45:06;15.93;;;11.83;;
12332;SDS011;6232;48.094;11.288;2023-06-10T06:47:52;12.73;;;11.13;;
12332;SDS011;6232;48.094;11.288;2023-06-10T06:50:37;14.33;;;8.97;;
12332;SDS011;6232;48.094;11.288;2023-06-10T06:53:23;12.07;;;9.80;;
12332;SDS011;6232;48.094;11.288;2023-06-10T06:56:12;11.93;;;10.57;;
12332;SDS011;6232;48.094;11.288;2023-06-10T06:58:58;10.63;;;9.53;;
12332;SDS011;6232;48.094;11.288;2023-06-10T07:01:43;10.57;;;9.10;;
12332;SDS011;6232;48.094;11.288;2023-06-10T07:04:29;11.37;;;10.17;;
12332;SDS011;6232;48.094;11.288;2023-06-10T07:07:15;10.20;;;9.20;;
12332;SDS011;6232;48.094;11.288;2023-06-10T07:10:01;11.70;;;9.00;;
12332;SDS011;6232;48.094;11.288;2023-06-10T07:12:47;9.60;;;8.60;;
12332;SDS011;6232;48.094;11.288;2023-06-10T07:15:32;9.43;;;8.40;;
12332;SDS011;6232;48.094;11.288;2023-06-10T07:18:18;8.83;;;7.93;;
12332;SDS011;6232;48.094;11.288;2023-06-10T07:21:04;9.27;;;7.40;;
12332;SDS011;6232;48.094;11.288;2023-06-10T07:23:50;8.67;;;7.70;;
12332;SDS011;6232;48.094;11.288;2023-06-10T07:26:38;8.97;;;7.40;;
12332;SDS011;6232;48.094;11.288;2023-06-10T07:29:24;8.90;;;8.00;;
12332;SDS011;6232;48.094;11.288;2023-06-10T07:32:09;7.03;;;6.43;;
12332;SDS011;6232;48.094;11.288;2023-06-10T07:34:55;7.37;;;6.67;;
12332;SDS011;6232;48.094;11.288;2023-06-10T07:37:40;7.30;;;6.57;;
12332;SDS011;6232;48.094;11.288;2023-06-10T07:40:26;8.43;;;6.80;;
12332;SDS011;6232;48.094;11.288;2023-06-10T07:43:11;8.03;;;7.23;;
12332;SDS011;6232;48.094;11.288;2023-06-10T07:45:57;8.33;;;6.90;;
12332;SDS011;6232;48.094;11.288;2023-06-10T07:48:42;7.00;;;5.17;;
12332;SDS011;6232;48.094;11.288;2023-06-10T07:51:28;7.90;;;6.17;;
12332;SDS011;6232;48.094;11.288;2023-06-10T07:54:14;7.87;;;6.23;;
12332;SDS011;6232;48.094;11.288;2023-06-10T07:56:59;7.43;;;6.33;;
12332;SDS011;6232;48.094;11.288;2023-06-10T07:59:45;7.73;;;6.47;;
12332;SDS011;6232;48.094;11.288;2023-06-10T08:02:30;6.17;;;5.60;;
12332;SDS011;6232;48.094;11.288;2023-06-10T08:05:16;6.30;;;5.67;;
12332;SDS011;6232;48.094;11.288;2023-06-10T08:08:01;5.80;;;5.20;;
12332;SDS011;6232;48.094;11.288;2023-06-10T08:10:47;5.90;;;5.30;;
12332;SDS011;6232;48.094;11.288;2023-06-10T08:13:34;5.90;;;5.30;;
12332;SDS011;6232;48.094;11.288;2023-06-10T08:16:20;6.33;;;5.73;;
12332;SDS011;6232;48.094;11.288;2023-06-10T08:19:05;6.37;;;5.77;;
12332;SDS011;6232;48.094;11.288;2023-06-10T08:21:51;8.33;;;5.77;;
12332;SDS011;6232;48.094;11.288;2023-06-10T08:24:37;5.90;;;5.30;;
12332;SDS011;6232;48.094;11.288;2023-06-10T08:27:22;5.00;;;4.50;;
12332;SDS011;6232;48.094;11.288;2023-06-10T08:30:08;6.93;;;6.30;;
12332;SDS011;6232;48.094;11.288;2023-06-10T08:32:55;6.93;;;5.80;;
12332;SDS011;6232;48.094;11.288;2023-06-10T08:35:41;7.70;;;4.90;;
12332;SDS011;6232;48.094;11.288;2023-06-10T08:38:27;6.13;;;5.57;;
12332;SDS011;6232;48.094;11.288;2023-06-10T08:41:12;5.63;;;5.13;;
12332;SDS011;6232;48.094;11.288;2023-06-10T08:44:03;5.43;;;4.50;;
12332;SDS011;6232;48.094;11.288;2023-06-10T08:46:53;5.53;;;4.53;;
12332;SDS011;6232;48.094;11.288;2023-06-10T08:49:44;4.70;;;4.30;;
12332;SDS011;6232;48.094;11.288;2023-06-10T08:52:35;6.50;;;4.20;;
12332;SDS011;6232;48.094;11.288;2023-06-10T08:55:29;5.27;;;4.77;;
12332;SDS011;6232;48.094;11.288;2023-06-10T08:58:15;5.43;;;4.90;;
12332;SDS011;6232;48.094;11.288;2023-06-10T09:01:00;4.90;;;4.17;;
12332;SDS011;6232;48.094;11.288;2023-06-10T09:03:46;5.40;;;4.67;;
12332;SDS011;6232;48.094;11.288;2023-06-10T09:06:32;3.90;;;3.60;;
12332;SDS011;6232;48.094;11.288;2023-06-10T09:09:18;4.63;;;4.23;;
12332;SDS011;6232;48.094;11.288;2023-06-10T09:12:05;3.90;;;3.57;;
12332;SDS011;6232;48.094;11.288;2023-06-10T09:14:51;4.10;;;3.70;;
12332;SDS011;6232;48.094;11.288;2023-06-10T09:17:37;3.60;;;3.30;;
12332;SDS011;6232;48.094;11.288;2023-06-10T09:20:23;3.80;;;3.47;;
12332;SDS011;6232;48.094;11.288;2023-06-10T09:23:08;3.53;;;3.23;;
12332;SDS011;6232;48.094;11.288;2023-06-10T09:25:58;3.77;;;3.47;;
12332;SDS011;6232;48.094;11.288;2023-06-10T09:28:57;3.93;;;3.63;;
12332;SDS011;6232;48.094;11.288;2023-06-10T09:31:43;3.30;;;3.00;;
12332;SDS011;6232;48.094;11.288;2023-06-10T09:34:28;3.10;;;2.80;;
12332;SDS011;6232;48.094;11.288;2023-06-10T09:37:19;5.07;;;3.83;;
12332;SDS011;6232;48.094;11.288;2023-06-10T09:40:06;3.60;;;3.30;;
12332;SDS011;6232;48.094;11.288;2023-06-10T09:42:53;3.80;;;3.30;;
12332;SDS011;6232;48.094;11.288;2023-06-10T09:45:40;3.07;;;2.87;;
12332;SDS011;6232;48.094;11.288;2023-06-10T09:48:25;6.40;;;4.10;;
12332;SDS011;6232;48.094;11.288;2023-06-10T09:51:11;3.60;;;3.30;;
12332;SDS011;6232;48.094;11.288;2023-06-10T09:53:57;4.90;;;3.40;;
12332;SDS011;6232;48.094;11.288;2023-06-10T09:56:46;3.40;;;3.17;;
12332;SDS011;6232;48.094;11.288;2023-06-10T09:59:32;3.63;;;3.30;;
12332;SDS011;6232;48.094;11.288;2023-06-10T10:02:17;3.93;;;3.63;;
12332;SDS011;6232;48.094;11.288;2023-06-10T10:05:03;4.50;;;3.83;;
12332;SDS011;6232;48.094;11.288;2023-06-10T10:07:52;3.40;;;3.17;;
12332;SDS011;6232;48.094;11.288;2023-06-10T10:10:37;4.20;;;3.80;;
12332;SDS011;6232;48.094;11.288;2023-06-10T10:13:23;6.27;;;3.57;;
12332;SDS011;6232;48.094;11.288;2023-06-10T10:16:11;3.57;;;3.27;;
12332;SDS011;6232;48.094;11.288;2023-06-10T10:19:01;3.53;;;2.80;;
12332;SDS011;6232;48.094;11.288;2023-06-10T10:21:53;6.93;;;3.20;;
12332;SDS011;6232;48.094;11.288;2023-06-10T10:24:44;4.10;;;3.80;;
12332;SDS011;6232;48.094;11.288;2023-06-10T10:30:45;4.47;;;4.07;;
12332;SDS011;6232;48.094;11.288;2023-06-10T10:33:33;5.60;;;3.60;;
12332;SDS011;6232;48.094;11.288;2023-06-10T10:36:21;4.67;;;3.73;;
12332;SDS011;6232;48.094;11.288;2023-06-10T10:39:07;3.30;;;3.00;;
12332;SDS011;6232;48.094;11.288;2023-06-10T10:41:52;5.32;;;3.55;;
12332;SDS011;6232;48.094;11.288;2023-06-10T10:44:38;10.20;;;4.10;;
12332;SDS011;6232;48.094;11.288;2023-06-10T10:47:25;3.85;;;3.20;;
12332;SDS011;6232;48.094;11.288;2023-06-10T10:50:16;3.45;;;3.08;;
12332;SDS011;6232;48.094;11.288;2023-06-10T10:53:03;3.83;;;3.40;;
12332;SDS011;6232;48.094;11.288;2023-06-10T10:55:58;3.53;;;3.22;;
12332;SDS011;6232;48.094;11.288;2023-06-10T10:59:01;4.63;;;3.35;;
12332;SDS011;6232;48.094;11.288;2023-06-10T11:01:46;3.17;;;2.88;;
12332;SDS011;6232;48.094;11.288;2023-06-10T11:04:32;4.57;;;4.18;;
12332;SDS011;6232;48.094;11.288;2023-06-10T11:07:20;3.85;;;3.28;;
12332;SDS011;6232;48.094;11.288;2023-06-10T11:10:10;3.60;;;3.30;;
12332;SDS011;6232;48.094;11.288;2023-06-10T11:12:57;3.17;;;2.88;;
12332;SDS011;6232;48.094;11.288;2023-06-10T11:15:43;5.10;;;3.58;;
12332;SDS011;6232;48.094;11.288;2023-06-10T11:18:29;3.33;;;3.03;;
12332;SDS011;6232;48.094;11.288;2023-06-10T11:21:16;4.47;;;3.90;;
12332;SDS011;6232;48.094;11.288;2023-06-10T11:24:11;3.03;;;2.83;;
12332;SDS011;6232;48.094;11.288;2023-06-10T11:32:50;2.95;;;2.65;;
12332;SDS011;6232;48.094;11.288;2023-06-10T11:35:36;4.10;;;2.75;;
12332;SDS011;6232;48.094;11.288;2023-06-10T11:38:22;4.75;;;3.00;;
12332;SDS011;6232;48.094;11.288;2023-06-10T11:41:08;2.80;;;2.60;;
12332;SDS011;6232;48.094;11.288;2023-06-10T11:43:53;5.88;;;3.40;;
12332;SDS011;6232;48.094;11.288;2023-06-10T11:46:42;4.57;;;3.05;;
12332;SDS011;6232;48.094;11.288;2023-06-10T11:49:28;3.08;;;2.88;;
12332;SDS011;6232;48.094;11.288;2023-06-10T11:52:13;3.33;;;3.03;;
12332;SDS011;6232;48.094;11.288;2023-06-10T11:54:59;3.30;;;3.10;;
12332;SDS011;6232;48.094;11.288;2023-06-10T11:57:44;4.68;;;2.92;;
12332;SDS011;6232;48.094;11.288;2023-06-10T12:00:30;3.20;;;2.97;;
12332;SDS011;6232;48.094;11.288;2023-06-10T12:03:16;6.43;;;3.45;;
12332;SDS011;6232;48.094;11.288;2023-06-10T12:06:03;2.80;;;2.60;;
12332;SDS011;6232;48.094;11.288;2023-06-10T12:08:49;11.23;;;4.18;;
12332;SDS011;6232;48.094;11.288;2023-06-10T12:11:34;3.08;;;2.88;;
12332;SDS011;6232;48.094;11.288;2023-06-10T12:20:27;3.00;;;2.80;;
12332;SDS011;6232;48.094;11.288;2023-06-10T12:23:15;3.67;;;2.50;;
12332;SDS011;6232;48.094;11.288;2023-06-10T12:26:01;2.97;;;2.67;;
12332;SDS011;6232;48.094;11.288;2023-06-10T12:28:50;3.00;;;2.80;;
12332;SDS011;6232;48.094;11.288;2023-06-10T12:31:51;3.10;;;2.90;;
12332;SDS011;6232;48.094;11.288;2023-06-10T12:34:37;3.30;;;3.00;;
12332;SDS011;6232;48.094;11.288;2023-06-10T12:37:23;2.92;;;2.72;;
12332;SDS011;6232;48.094;11.288;2023-06-10T12:40:09;3.30;;;3.05;;
12332;SDS011;6232;48.094;11.288;2023-06-10T12:42:55;4.20;;;3.00;;
12332;SDS011;6232;48.094;11.288;2023-06-10T12:45:43;5.28;;;2.90;;
12332;SDS011;6232;48.094;11.288;2023-06-10T12:48:30;2.78;;;2.58;;
12332;SDS011;6232;48.094;11.288;2023-06-10T12:51:15;3.90;;;2.78;;
12332;SDS011;6232;48.094;11.288;2023-06-10T12:54:01;3.88;;;2.40;;
12332;SDS011;6232;48.094;11.288;2023-06-10T12:56:47;3.20;;;2.90;;
12332;SDS011;6232;48.094;11.288;2023-06-10T12:59:33;2.75;;;2.55;;
12332;SDS011;6232;48.094;11.288;2023-06-10T13:02:19;2.90;;;2.70;;
12332;SDS011;6232;48.094;11.288;2023-06-10T13:05:09;3.35;;;2.10;;
12332;SDS011;6232;48.094;11.288;2023-06-10T13:07:54;3.30;;;3.10;;
12332;SDS011;6232;48.094;11.288;2023-06-10T13:10:40;6.32;;;5.80;;
12332;SDS011;6232;48.094;11.288;2023-06-10T13:13:26;3.25;;;3.05;;
12332;SDS011;6232;48.094;11.288;2023-06-10T13:16:11;2.67;;;2.47;;
12332;SDS011;6232;48.094;11.288;2023-06-10T13:18:57;2.45;;;2.25;;
12332;SDS011;6232;48.094;11.288;2023-06-10T13:21:42;2.63;;;2.33;;
12332;SDS011;6232;48.094;11.288;2023-06-10T13:24:28;6.05;;;2.70;;
12332;SDS011;6232;48.094;11.288;2023-06-10T13:27:13;2.90;;;2.67;;
12332;SDS011;6232;48.094;11.288;2023-06-10T13:29:59;2.75;;;2.55;;
12332;SDS011;6232;48.094;11.288;2023-06-10T13:32:45;2.60;;;2.40;;
12332;SDS011;6232;48.094;11.288;2023-06-10T13:35:30;2.40;;;2.20;;
12332;SDS011;6232;48.094;11.288;2023-06-10T13:38:16;3.00;;;2.80;;
12332;SDS011;6232;48.094;11.288;2023-06-10T13:41:01;3.15;;;2.85;;
12332;SDS011;6232;48.094;11.288;2023-06-10T13:43:47;3.45;;;3.20;;
12332;SDS011;6232;48.094;11.288;2023-06-10T13:46:32;2.80;;;2.60;;
12332;SDS011;6232;48.094;11.288;2023-06-10T13:49:18;2.67;;;2.47;;
12332;SDS011;6232;48.094;11.288;2023-06-10T13:52:03;2.45;;;2.25;;
12332;SDS011;6232;48.094;11.288;2023-06-10T13:54:49;2.55;;;2.35;;
12332;SDS011;6232;48.094;11.288;2023-06-10T13:57:35;3.03;;;2.80;;
12332;SDS011;6232;48.094;11.288;2023-06-10T14:00:20;2.78;;;2.58;;
12332;SDS011;6232;48.094;11.288;2023-06-10T14:03:06;3.58;;;3.33;;
12332;SDS011;6232;48.094;11.288;2023-06-10T14:05:52;3.00;;;2.80;;
12332;SDS011;6232;48.094;11.288;2023-06-10T14:08:37;3.00;;;2.80;;
12332;SDS011;6232;48.094;11.288;2023-06-10T14:11:23;3.38;;;3.08;;
12332;SDS011;6232;48.094;11.288;2023-06-10T14:14:08;3.42;;;3.13;;
12332;SDS011;6232;48.094;11.288;2023-06-10T14:16:54;3.15;;;2.95;;
12332;SDS011;6232;48.094;11.288;2023-06-10T14:19:40;4.25;;;2.85;;
12332;SDS011;6232;48.094;11.288;2023-06-10T14:22:25;3.33;;;3.10;;
12332;SDS011;6232;48.094;11.288;2023-06-10T14:25:11;3.58;;;3.28;;
12332;SDS011;6232;48.094;11.288;2023-06-10T14:27:57;5.60;;;2.83;;
12332;SDS011;6232;48.094;11.288;2023-06-10T14:30:43;2.72;;;2.53;;
12332;SDS011;6232;48.094;11.288;2023-06-10T14:33:28;3.30;;;3.00;;
12332;SDS011;6232;48.094;11.288;2023-06-10T14:36:16;3.72;;;3.40;;
12332;SDS011;6232;48.094;11.288;2023-06-10T14:39:01;2.88;;;2.67;;
12332;SDS011;6232;48.094;11.288;2023-06-10T14:41:47;3.10;;;2.90;;
12332;SDS011;6232;48.094;11.288;2023-06-10T14:44:33;2.88;;;2.67;;
12332;SDS011;6232;48.094;11.288;2023-06-10T14:47:18;2.75;;;2.55;;
12332;SDS011;6232;48.094;11.288;2023-06-10T14:50:04;3.22;;;2.60;;
12332;SDS011;6232;48.094;11.288;2023-06-10T14:52:49;2.42;;;2.30;;
12332;SDS011;6232;48.094;11.288;2023-06-10T14:55:35;2.65;;;2.45;;
12332;SDS011;6232;48.094;11.288;2023-06-10T14:58:20;2.50;;;2.40;;
12332;SDS011;6232;48.094;11.288;2023-06-10T15:01:06;4.18;;;3.78;;
12332;SDS011;6232;48.094;11.288;2023-06-10T15:03:51;5.30;;;4.90;;
12332;SDS011;6232;48.094;11.288;2023-06-10T15:06:37;3.08;;;2.83;;
12332;SDS011;6232;48.094;11.288;2023-06-10T15:09:23;4.03;;;2.90;;
12332;SDS011;6232;48.094;11.288;2023-06-10T15:12:09;6.20;;;3.70;;
12332;SDS011;6232;48.094;11.288;2023-06-10T15:14:55;3.42;;;3.13;;
12332;SDS011;6232;48.094;11.288;2023-06-10T15:17:41;2.83;;;2.63;;
12332;SDS011;6232;48.094;11.288;2023-06-10T15:20:27;7.10;;;4.90;;
12332;SDS011;6232;48.094;11.288;2023-06-10T15:23:12;2.90;;;2.70;;
12332;SDS011;6232;48.094;11.288;2023-06-10T15:25:58;2.97;;;2.78;;
12332;SDS011;6232;48.094;11.288;2023-06-10T15:28:43;2.80;;;2.60;;
12332;SDS011;6232;48.094;11.288;2023-06-10T15:31:29;3.13;;;2.80;;
12332;SDS011;6232;48.094;11.288;2023-06-10T15:34:15;2.70;;;2.50;;
12332;SDS011;6232;48.094;11.288;2023-06-10T15:37:01;2.78;;;2.38;;
12332;SDS011;6232;48.094;11.288;2023-06-10T15:39:46;2.95;;;2.63;;
12332;SDS011;6232;48.094;11.288;2023-06-10T15:42:32;2.67;;;2.47;;
12332;SDS011;6232;48.094;11.288;2023-06-10T15:45:17;3.15;;;2.85;;
12332;SDS011;6232;48.094;11.288;2023-06-10T15:48:03;3.17;;;2.55;;
12332;SDS011;6232;48.094;11.288;2023-06-10T15:50:49;2.90;;;2.60;;
12332;SDS011;6232;48.094;11.288;2023-06-10T15:53:34;2.67;;;2.47;;
12332;SDS011;6232;48.094;11.288;2023-06-10T15:56:21;2.53;;;2.33;;
12332;SDS011;6232;48.094;11.288;2023-06-10T15:59:06;2.75;;;2.55;;
12332;SDS011;6232;48.094;11.288;2023-06-10T16:01:52;2.35;;;2.15;;
12332;SDS011;6232;48.094;11.288;2023-06-10T16:04:37;2.60;;;2.40;;
12332;SDS011;6232;48.094;11.288;2023-06-10T16:07:23;3.28;;;2.30;;
12332;SDS011;6232;48.094;11.288;2023-06-10T16:10:09;2.67;;;2.47;;
12332;SDS011;6232;48.094;11.288;2023-06-10T16:12:54;3.05;;;2.85;;
12332;SDS011;6232;48.094;11.288;2023-06-10T16:15:40;3.70;;;2.70;;
12332;SDS011;6232;48.094;11.288;2023-06-10T16:18:26;2.90;;;2.65;;
12332;SDS011;6232;48.094;11.288;2023-06-10T16:21:11;3.22;;;2.97;;
12332;SDS011;6232;48.094;11.288;2023-06-10T16:23:57;3.30;;;3.10;;
12332;SDS011;6232;48.094;11.288;2023-06-10T16:26:43;5.43;;;3.37;;
12332;SDS011;6232;48.094;11.288;2023-06-10T16:29:28;3.30;;;3.00;;
12332;SDS011;6232;48.094;11.288;2023-06-10T16:32:14;2.73;;;2.53;;
12332;SDS011;6232;48.094;11.288;2023-06-10T16:34:59;4.27;;;3.03;;
12332;SDS011;6232;48.094;11.288;2023-06-10T16:37:45;3.20;;;3.00;;
12332;SDS011;6232;48.094;11.288;2023-06-10T16:40:30;2.80;;;2.60;;
12332;SDS011;6232;48.094;11.288;2023-06-10T16:43:16;3.07;;;2.80;;
12332;SDS011;6232;48.094;11.288;2023-06-10T16:46:02;3.43;;;3.13;;